Terminal Aerodrome Forecast
Issued by NWS Wilmington, OH

Current Version | Previous Version | Graphics & Text | Print | Product List | Glossary On
Versions: 1 2 3 4 5 6 7 8 9 10 11 12 13 14 15 16 17 18 19 20 21 22 23 24 25 26 27 28
616
FTUS41 KILN 241728
TAFCVG
TAF
KCVG 241728Z 2418/2524 08009KT P6SM VCSH SCT011 OVC035
      TEMPO 2418/2420 5SM -SHRA BR OVC011
     FM242000 08010KT 3SM -SHRA BR OVC007
     FM250100 15010G21KT 2SM +SHRA VCTS OVC011CB WS020/19045KT
     FM250700 20017G31KT 2SM +SHRA OVC012
     FM251100 25015G31KT P6SM BKN025
     FM251400 26014G22KT P6SM SCT025=

USA.gov is the U.S. government's official web portal to all federal, state and local government web resources and services.